createdAt,value
2023-03-07T00:01:38.777Z,28.90
2023-03-07T00:04:05.820Z,29.67
2023-03-07T00:06:33.103Z,29.58
2023-03-07T00:09:08.397Z,27.73
2023-03-07T00:11:35.487Z,29.27
2023-03-07T00:14:02.830Z,27.42
2023-03-07T00:16:29.996Z,28.87
2023-03-07T00:18:58.061Z,29.95
2023-03-07T00:21:27.662Z,27.67
2023-03-07T00:23:54.746Z,27.73
2023-03-07T00:26:23.246Z,27.73
2023-03-07T00:28:51.795Z,32.38
2023-03-07T00:31:22.551Z,34.38
2023-03-07T00:33:49.647Z,34.83
2023-03-07T00:36:22.020Z,30.70
2023-03-07T00:41:54.366Z,24.63
2023-03-07T00:44:23.513Z,25.12
2023-03-07T00:49:45.978Z,24.55
2023-03-07T00:52:33.796Z,26.33
2023-03-07T00:55:01.234Z,27.80
2023-03-07T01:03:38.036Z,23.38
2023-03-07T01:06:07.875Z,25.05
2023-03-07T01:08:35.696Z,23.12
2023-03-07T01:13:51.832Z,23.70
2023-03-07T01:16:24.098Z,23.15
2023-03-07T01:22:33.419Z,26.00
2023-03-07T01:25:01.048Z,22.20
2023-03-07T01:27:29.522Z,22.23
2023-03-07T01:33:03.497Z,21.85
2023-03-07T01:35:31.532Z,24.95
2023-03-07T01:55:18.925Z,25.98
2023-03-07T02:03:50.290Z,22.65
2023-03-07T02:06:18.619Z,25.53
2023-03-07T02:20:57.963Z,22.85
2023-03-07T02:23:51.471Z,23.10
2023-03-07T02:31:34.468Z,20.30
2023-03-07T02:36:43.543Z,26.95
2023-03-07T02:56:03.355Z,21.80
2023-03-07T03:01:19.234Z,25.08
2023-03-07T03:06:35.216Z,27.37
2023-03-07T03:12:19.369Z,24.98
2023-03-07T03:17:41.786Z,23.58
2023-03-07T03:34:00.297Z,26.33
2023-03-07T03:45:35.897Z,23.92
2023-03-07T04:37:25.094Z,25.33
2023-03-07T04:48:43.893Z,25.08
2023-03-07T06:20:41.897Z,23.92
2023-03-07T06:23:08.816Z,26.17
2023-03-07T06:25:35.756Z,27.20
2023-03-07T06:28:02.693Z,27.83
2023-03-07T06:30:29.669Z,26.48
2023-03-07T06:32:56.616Z,25.40
2023-03-07T06:35:23.498Z,25.08
2023-03-07T06:37:51.358Z,26.17
2023-03-07T06:40:18.405Z,29.98
2023-03-07T06:42:45.275Z,26.52
2023-03-07T06:47:38.982Z,26.62
2023-03-07T06:50:06.432Z,23.40
2023-03-07T06:52:33.278Z,25.17
2023-03-07T06:59:55.000Z,24.15
2023-03-07T07:02:22.021Z,24.45
2023-03-07T07:04:48.999Z,24.73
2023-03-07T07:07:15.880Z,24.10
2023-03-07T07:09:42.802Z,26.20
2023-03-07T07:12:11.965Z,28.08
2023-03-07T07:14:38.800Z,24.73
2023-03-07T07:19:32.563Z,24.67
2023-03-07T07:21:59.429Z,24.80
2023-03-07T07:26:53.340Z,20.80
2023-03-07T07:29:21.102Z,20.42
2023-03-07T07:31:49.832Z,20.90
2023-03-07T07:34:16.972Z,19.23
2023-03-07T07:36:43.838Z,22.35
2023-03-07T07:41:37.639Z,22.52
2023-03-07T07:44:04.623Z,20.85
2023-03-07T07:46:31.469Z,18.87
2023-03-07T07:51:25.024Z,18.48
2023-03-07T07:56:18.680Z,17.95
2023-03-07T07:58:45.592Z,23.65
2023-03-07T08:01:19.692Z,19.08
2023-03-07T08:03:47.086Z,19.60
2023-03-07T08:06:19.864Z,21.33
2023-03-07T08:08:48.288Z,18.75
2023-03-07T08:11:19.516Z,22.00
2023-03-07T08:13:49.763Z,18.40
2023-03-07T08:16:19.425Z,21.50
2023-03-07T08:18:53.537Z,21.60
2023-03-07T08:21:21.447Z,21.70
2023-03-07T08:23:48.614Z,20.90
2023-03-07T08:26:15.623Z,18.65
2023-03-07T08:28:42.695Z,19.90
2023-03-07T08:31:11.603Z,17.90
2023-03-07T08:33:39.277Z,20.60
2023-03-07T08:36:06.947Z,20.17
2023-03-07T08:38:34.133Z,20.20
2023-03-07T08:41:06.034Z,16.83
2023-03-07T08:43:33.935Z,20.58
2023-03-07T08:46:00.934Z,20.10
2023-03-07T08:48:28.375Z,18.33
2023-03-07T08:50:55.711Z,20.50
2023-03-07T08:53:23.037Z,21.05
2023-03-07T08:55:50.090Z,21.30
2023-03-07T08:58:17.000Z,21.08
2023-03-07T09:00:43.896Z,21.70
2023-03-07T09:03:10.816Z,30.83
2023-03-07T09:05:40.917Z,24.52
2023-03-07T09:08:08.890Z,31.85
2023-03-07T09:10:35.803Z,27.75
2023-03-07T09:13:02.678Z,24.80
2023-03-07T09:15:29.632Z,22.27
2023-03-07T09:17:56.602Z,20.65
2023-03-07T09:20:23.571Z,26.02
2023-03-07T09:22:51.860Z,25.67
2023-03-07T09:25:19.046Z,23.23
2023-03-07T09:27:45.992Z,23.08
2023-03-07T09:30:14.190Z,24.12
2023-03-07T09:32:41.106Z,21.62
2023-03-07T09:35:08.604Z,20.62
2023-03-07T09:37:35.573Z,22.08
2023-03-07T09:40:07.408Z,24.95
2023-03-07T09:43:13.707Z,26.58
2023-03-07T09:45:55.948Z,23.55
2023-03-07T09:48:36.676Z,23.33
2023-03-07T09:51:12.220Z,23.40
2023-03-07T09:53:50.001Z,26.92
2023-03-07T09:56:38.656Z,23.45
2023-03-07T09:59:23.961Z,24.98
2023-03-07T10:02:13.999Z,22.40
2023-03-07T10:05:08.707Z,22.85
2023-03-07T10:07:36.377Z,24.77
2023-03-07T10:10:11.161Z,23.55
2023-03-07T10:13:34.360Z,23.75
2023-03-07T10:16:05.751Z,24.08
2023-03-07T10:19:13.970Z,25.62
2023-03-07T10:22:06.065Z,32.97
2023-03-07T10:24:37.088Z,24.17
2023-03-07T10:27:09.887Z,27.52
2023-03-07T10:29:42.161Z,26.55
2023-03-07T10:32:41.089Z,24.10
2023-03-07T10:35:25.003Z,28.12
2023-03-07T10:37:54.490Z,27.92
2023-03-07T10:40:30.584Z,25.60
2023-03-07T10:42:58.892Z,24.58
2023-03-07T10:45:29.566Z,27.55
2023-03-07T10:48:00.191Z,28.87
2023-03-07T10:50:52.668Z,26.58
2023-03-07T10:53:28.050Z,27.27
2023-03-07T10:56:13.317Z,30.83
2023-03-07T10:58:41.580Z,28.40
2023-03-07T11:01:08.500Z,28.77
2023-03-07T11:03:55.817Z,26.05
2023-03-07T11:06:34.559Z,30.08
2023-03-07T11:09:18.722Z,32.45
2023-03-07T11:11:51.773Z,27.67
2023-03-07T11:14:19.168Z,30.27
2023-03-07T11:17:13.317Z,27.23
2023-03-07T11:19:45.505Z,26.25
2023-03-07T11:22:39.124Z,32.20
2023-03-07T11:25:23.580Z,29.23
2023-03-07T11:27:54.620Z,34.03
2023-03-07T11:30:35.714Z,27.55
2023-03-07T11:33:17.466Z,33.50
2023-03-07T11:35:56.913Z,30.52
2023-03-07T11:38:37.266Z,27.05
2023-03-07T11:41:19.169Z,29.52
2023-03-07T11:44:10.899Z,28.33
2023-03-07T11:46:41.138Z,28.77
2023-03-07T11:49:30.544Z,31.98
2023-03-07T11:52:04.750Z,27.48
2023-03-07T11:55:09.828Z,27.50
2023-03-07T11:57:58.739Z,25.12
2023-03-07T12:00:25.597Z,29.95
2023-03-07T12:03:04.676Z,31.50
2023-03-07T12:05:54.535Z,24.83
2023-03-07T12:08:45.895Z,26.05
2023-03-07T12:11:19.158Z,30.45
2023-03-07T12:13:54.752Z,32.70
2023-03-07T12:16:33.484Z,24.90
2023-03-07T12:19:20.988Z,20.95
2023-03-07T12:22:14.208Z,25.55
2023-03-07T12:24:55.989Z,22.80
2023-03-07T12:27:34.523Z,26.35
2023-03-07T12:30:14.621Z,21.65
2023-03-07T12:32:41.886Z,21.58
2023-03-07T12:35:15.246Z,23.30
2023-03-07T12:37:51.881Z,23.67
2023-03-07T12:40:22.239Z,25.37
2023-03-07T12:42:57.929Z,29.23
2023-03-07T12:45:27.912Z,29.37
2023-03-07T12:47:55.283Z,28.05
2023-03-07T12:50:38.067Z,24.17
2023-03-07T12:53:36.143Z,28.95
2023-03-07T12:56:10.280Z,21.33
2023-03-07T12:58:45.094Z,25.10
2023-03-07T13:01:35.299Z,27.85
2023-03-07T13:04:28.677Z,30.58
2023-03-07T13:07:02.336Z,27.17
2023-03-07T13:09:32.476Z,28.02
2023-03-07T13:12:20.196Z,27.02
2023-03-07T13:15:07.986Z,24.33
2023-03-07T13:17:38.358Z,27.65
2023-03-07T13:20:20.040Z,26.60
2023-03-07T13:22:46.850Z,29.20
2023-03-07T13:28:00.295Z,24.40
2023-03-07T13:30:31.433Z,26.33
2023-03-07T13:33:03.395Z,26.65
2023-03-07T13:35:35.752Z,27.83
2023-03-07T13:38:13.455Z,28.42
2023-03-07T13:40:49.199Z,25.25
2023-03-07T13:43:19.288Z,28.02
2023-03-07T13:46:06.053Z,28.10
2023-03-07T13:48:32.873Z,27.00
2023-03-07T13:53:32.025Z,29.65
2023-03-07T13:56:17.170Z,32.83
2023-03-07T13:59:04.238Z,30.23
2023-03-07T14:01:42.997Z,31.97
2023-03-07T14:04:39.497Z,30.67
2023-03-07T14:07:32.544Z,32.23
2023-03-07T14:10:19.566Z,33.42
2023-03-07T14:13:05.366Z,32.03
2023-03-07T14:15:50.809Z,28.73
2023-03-07T14:18:20.447Z,30.10
2023-03-07T14:21:07.138Z,31.42
2023-03-07T14:24:08.444Z,31.35
2023-03-07T14:26:40.048Z,30.73
2023-03-07T14:29:18.007Z,30.58
2023-03-07T14:31:45.650Z,27.75
2023-03-07T14:34:27.313Z,28.80
2023-03-07T14:37:04.556Z,27.05
2023-03-07T14:39:59.594Z,28.25
2023-03-07T14:42:31.645Z,24.33
2023-03-07T14:45:27.629Z,28.00
2023-03-07T14:48:33.608Z,26.23
2023-03-07T14:51:06.121Z,26.00
2023-03-07T14:53:34.804Z,29.02
2023-03-07T14:56:01.902Z,25.75
2023-03-07T14:58:32.725Z,24.95
2023-03-07T15:01:11.028Z,28.27
2023-03-07T15:03:51.934Z,24.67
2023-03-07T15:06:21.896Z,26.77
2023-03-07T15:08:49.496Z,22.10
2023-03-07T15:11:37.136Z,28.20
2023-03-07T15:14:05.420Z,28.83
2023-03-07T15:16:37.838Z,30.17
2023-03-07T15:19:32.246Z,28.30
2023-03-07T15:22:05.066Z,28.00
2023-03-07T15:24:39.728Z,19.58
2023-03-07T15:27:10.630Z,26.33
2023-03-07T15:29:39.398Z,27.80
2023-03-07T15:32:07.850Z,24.42
2023-03-07T15:34:39.450Z,22.45
2023-03-07T15:37:27.394Z,24.95
2023-03-07T15:43:17.805Z,24.98
2023-03-07T15:45:46.545Z,30.42
2023-03-07T15:48:38.997Z,27.15
2023-03-07T15:51:15.246Z,26.15
2023-03-07T15:53:43.309Z,26.17
2023-03-07T15:56:41.544Z,26.23
2023-03-07T15:59:18.620Z,23.73
2023-03-07T16:01:45.541Z,27.05
2023-03-07T16:04:37.540Z,24.33
2023-03-07T16:33:13.443Z,34.88
2023-03-07T16:46:29.575Z,37.78
2023-03-07T16:48:56.656Z,36.33
2023-03-07T16:51:26.320Z,45.33
2023-03-07T16:53:53.187Z,43.20
2023-03-07T16:56:30.134Z,38.83
2023-03-07T16:58:57.676Z,41.33
2023-03-07T17:01:25.034Z,34.50
2023-03-07T17:07:22.996Z,39.45
2023-03-07T17:09:50.497Z,36.08
2023-03-07T17:12:18.805Z,35.63
2023-03-07T17:14:46.751Z,31.92
2023-03-07T17:17:30.698Z,37.22
2023-03-07T17:20:06.253Z,39.17
2023-03-07T17:22:35.891Z,42.42
2023-03-07T17:25:05.234Z,42.75
2023-03-07T17:27:33.597Z,40.53
2023-03-07T17:30:00.738Z,39.92
2023-03-07T17:32:27.738Z,43.00
2023-03-07T17:34:56.125Z,40.45
2023-03-07T17:37:23.581Z,39.85
2023-03-07T17:39:52.077Z,38.35
2023-03-07T17:42:19.757Z,37.67
2023-03-07T17:44:47.505Z,42.25
2023-03-07T17:47:14.974Z,42.38
2023-03-07T17:49:42.159Z,43.50
2023-03-07T17:52:09.485Z,40.03
2023-03-07T17:54:37.520Z,38.72
2023-03-07T17:57:08.199Z,43.42
2023-03-07T17:59:35.422Z,37.90
2023-03-07T18:02:02.614Z,39.20
2023-03-07T18:04:31.743Z,34.95
2023-03-07T18:06:59.599Z,37.58
2023-03-07T18:09:26.759Z,31.92
2023-03-07T18:11:53.917Z,30.42
2023-03-07T18:14:20.944Z,32.80
2023-03-07T18:16:48.787Z,33.72
2023-03-07T18:19:25.750Z,33.08
2023-03-07T18:21:53.339Z,36.22
2023-03-07T18:24:30.291Z,34.55
2023-03-07T18:26:59.397Z,36.10
2023-03-07T18:29:28.037Z,41.00
2023-03-07T18:31:54.901Z,38.88
2023-03-07T18:36:51.786Z,36.90
2023-03-07T18:39:20.224Z,39.13
2023-03-07T18:41:48.700Z,40.65
2023-03-07T18:44:18.454Z,39.38
2023-03-07T18:46:45.938Z,38.33
2023-03-07T18:49:12.994Z,39.88
2023-03-07T18:51:40.421Z,41.70
2023-03-07T18:54:09.126Z,36.45
2023-03-07T18:56:36.156Z,39.60
2023-03-07T18:59:03.585Z,36.90
2023-03-07T19:01:33.048Z,46.03
2023-03-07T19:04:03.411Z,45.88
2023-03-07T19:06:34.663Z,41.13
2023-03-07T19:09:03.675Z,36.13
2023-03-07T19:11:31.041Z,35.53
2023-03-07T19:13:58.113Z,35.75
2023-03-07T19:16:27.014Z,38.30
2023-03-07T19:18:54.984Z,40.90
2023-03-07T19:21:24.799Z,41.60
2023-03-07T19:23:53.135Z,49.22
2023-03-07T19:26:20.924Z,53.33
2023-03-07T19:28:49.955Z,57.00
2023-03-07T19:31:18.976Z,48.72
2023-03-07T19:33:46.858Z,54.00
2023-03-07T19:36:16.062Z,57.62
2023-03-07T19:38:43.378Z,73.97
2023-03-07T19:41:13.670Z,86.45
2023-03-07T19:43:40.779Z,92.78
2023-03-07T19:46:09.593Z,129.82
2023-03-07T19:48:38.824Z,123.15
2023-03-07T19:51:18.659Z,124.93
2023-03-07T19:53:46.021Z,106.28
2023-03-07T19:56:16.163Z,76.37
2023-03-07T19:58:43.070Z,102.35
2023-03-07T20:01:11.712Z,109.25
2023-03-07T20:03:38.980Z,78.43
2023-03-07T20:06:07.807Z,102.35
2023-03-07T20:08:35.157Z,108.53
2023-03-07T20:11:16.233Z,96.20
2023-03-07T20:13:45.752Z,93.55
2023-03-07T20:16:13.664Z,88.55
2023-03-07T20:18:43.760Z,87.70
2023-03-07T20:21:12.907Z,75.93
2023-03-07T20:23:40.103Z,64.93
2023-03-07T20:26:12.436Z,66.82
2023-03-07T20:28:39.443Z,85.55
2023-03-07T20:31:09.572Z,106.72
2023-03-07T20:33:40.700Z,135.02
2023-03-07T20:36:08.887Z,141.90
2023-03-07T20:38:37.116Z,110.72
2023-03-07T20:41:09.027Z,110.35
2023-03-07T20:43:35.999Z,63.25
2023-03-07T20:46:06.485Z,63.70
2023-03-07T20:48:34.267Z,53.53
2023-03-07T20:51:16.274Z,50.15
2023-03-07T20:53:43.185Z,46.92
2023-03-07T20:56:10.103Z,53.67
2023-03-07T20:58:37.162Z,59.22
2023-03-07T21:01:04.373Z,56.50
2023-03-07T21:03:31.333Z,59.63
2023-03-07T21:06:00.529Z,64.68
2023-03-07T21:08:29.240Z,59.50
2023-03-07T21:10:59.810Z,63.65
2023-03-07T21:13:27.653Z,60.45
2023-03-07T21:15:59.798Z,239.63
2023-03-07T21:18:27.655Z,178.25
2023-03-07T21:20:54.576Z,134.85
2023-03-07T21:23:21.499Z,120.25
2023-03-07T21:25:48.449Z,54.17
2023-03-07T21:28:15.287Z,50.80
2023-03-07T21:33:10.953Z,40.53
2023-03-07T21:35:38.956Z,42.17
2023-03-07T21:38:06.450Z,35.75
2023-03-07T21:40:33.795Z,41.28
2023-03-07T21:43:00.731Z,46.90
2023-03-07T21:45:27.652Z,37.83
2023-03-07T21:47:54.614Z,39.78
2023-03-07T21:50:21.563Z,32.47
2023-03-07T21:52:49.006Z,34.55
2023-03-07T21:55:16.642Z,37.72
2023-03-07T21:57:43.719Z,36.78
2023-03-07T22:00:14.240Z,37.75
2023-03-07T22:02:41.116Z,35.47
2023-03-07T22:05:08.373Z,33.53
2023-03-07T22:07:35.443Z,33.13
2023-03-07T22:10:02.882Z,37.88
2023-03-07T22:12:32.390Z,29.12
2023-03-07T22:14:59.681Z,30.10
2023-03-07T22:17:27.404Z,30.23
2023-03-07T22:19:54.420Z,31.50
2023-03-07T22:22:21.301Z,30.35
2023-03-07T22:24:51.696Z,31.85
2023-03-07T22:27:19.205Z,33.03
2023-03-07T22:29:46.051Z,37.58
2023-03-07T22:34:39.686Z,31.90
2023-03-07T22:37:07.390Z,35.83
2023-03-07T22:39:34.480Z,29.10
2023-03-07T22:42:01.418Z,30.70
2023-03-07T22:44:28.434Z,31.02
2023-03-07T22:46:56.401Z,30.35
2023-03-07T22:49:23.306Z,32.65
2023-03-07T22:51:50.204Z,30.70
2023-03-07T22:54:17.152Z,32.95
2023-03-07T22:56:44.181Z,29.37
2023-03-07T22:59:11.539Z,31.52
2023-03-07T23:01:38.545Z,32.47
2023-03-07T23:04:07.897Z,33.45
2023-03-07T23:06:36.417Z,27.73
2023-03-07T23:09:05.025Z,28.77
2023-03-07T23:11:33.068Z,29.10
2023-03-07T23:14:00.511Z,27.52
2023-03-07T23:16:29.719Z,29.85
2023-03-07T23:18:58.792Z,30.35
2023-03-07T23:21:29.016Z,25.77
2023-03-07T23:23:56.425Z,26.62
2023-03-07T23:26:26.054Z,27.75
2023-03-07T23:28:53.075Z,29.15
2023-03-07T23:31:22.420Z,30.50
2023-03-07T23:33:49.916Z,26.73
2023-03-07T23:36:17.513Z,30.62
2023-03-07T23:38:46.440Z,28.70
2023-03-07T23:41:14.042Z,30.58
2023-03-07T23:43:40.980Z,31.65
2023-03-07T23:46:07.955Z,29.30
2023-03-07T23:48:34.983Z,29.35
2023-03-07T23:51:01.935Z,31.75
2023-03-07T23:53:28.837Z,29.95
2023-03-07T23:55:55.747Z,29.80
2023-03-07T23:58:22.656Z,32.28
